createdAt,value
2022-12-10T05:30:38.137Z,0.00
2022-12-10T05:31:38.028Z,0.00
2022-12-10T05:32:37.996Z,0.00
2022-12-10T05:33:38.002Z,0.00
2022-12-10T05:34:37.959Z,0.00
2022-12-10T05:35:37.956Z,0.00
2022-12-10T05:36:37.961Z,0.00
2022-12-10T05:37:37.965Z,0.00
2022-12-10T05:38:37.922Z,0.00
2022-12-10T05:39:37.938Z,0.00
2022-12-10T05:40:37.898Z,0.00
2022-12-10T05:41:37.935Z,0.00
2022-12-10T05:42:37.878Z,0.00
2022-12-10T05:43:37.872Z,0.00
2022-12-10T05:44:37.955Z,0.00
2022-12-10T05:45:37.852Z,0.00
2022-12-10T05:46:37.968Z,0.00
2022-12-10T05:47:37.845Z,0.00
2022-12-10T05:48:37.817Z,0.00
2022-12-10T05:49:37.894Z,0.00
2022-12-10T05:50:37.819Z,0.00
2022-12-10T05:51:37.790Z,0.00
2022-12-10T05:52:37.772Z,0.00
2022-12-10T05:53:37.768Z,0.00
2022-12-10T05:54:37.750Z,0.00
2022-12-10T05:55:37.811Z,0.00
2022-12-10T05:56:37.739Z,0.00
2022-12-10T05:57:37.734Z,0.00
2022-12-10T05:58:37.706Z,0.00
2022-12-10T05:59:37.718Z,0.00
2022-12-10T06:00:37.770Z,0.00
2022-12-10T06:01:37.683Z,0.00
2022-12-10T06:02:37.714Z,0.00
2022-12-10T06:03:37.659Z,0.00
2022-12-10T06:04:37.716Z,0.00
2022-12-10T06:05:37.636Z,0.00
2022-12-10T06:06:37.675Z,0.00
2022-12-10T06:07:37.627Z,0.00
2022-12-10T06:08:37.605Z,0.00
2022-12-10T06:09:37.589Z,0.00
2022-12-10T06:10:37.594Z,0.00
2022-12-10T06:11:37.569Z,0.00
2022-12-10T06:12:37.690Z,0.00
2022-12-10T06:13:37.583Z,0.00
2022-12-10T06:14:37.560Z,0.00
2022-12-10T06:15:37.525Z,0.00
2022-12-10T06:16:37.512Z,0.00
2022-12-10T06:17:37.508Z,0.00
2022-12-10T06:18:37.513Z,0.00
2022-12-10T06:19:37.550Z,0.00
2022-12-10T06:20:37.471Z,0.00
2022-12-10T06:21:37.482Z,0.00
2022-12-10T06:22:37.454Z,0.00
2022-12-10T06:23:37.443Z,0.00
2022-12-10T06:24:37.429Z,0.00
2022-12-10T06:25:37.549Z,0.00
2022-12-10T06:26:37.433Z,0.00
2022-12-10T06:27:37.407Z,0.00
2022-12-10T06:28:37.456Z,0.00
2022-12-10T06:29:37.378Z,0.00
2022-12-10T06:30:37.358Z,0.00
2022-12-10T06:31:37.455Z,0.00
2022-12-10T06:32:37.354Z,0.00
2022-12-10T06:33:37.340Z,0.00
2022-12-10T06:34:42.582Z,0.00
2022-12-10T06:35:38.308Z,0.00
2022-12-10T06:36:37.330Z,0.00
2022-12-10T06:37:37.346Z,0.00
2022-12-10T06:38:37.285Z,0.00
2022-12-10T06:39:37.266Z,0.00
2022-12-10T06:40:37.259Z,0.00
2022-12-10T06:41:37.246Z,0.00
2022-12-10T06:42:37.263Z,0.00
2022-12-10T06:43:37.285Z,0.00
2022-12-10T06:44:37.210Z,0.00
2022-12-10T06:45:37.214Z,0.00
2022-12-10T06:46:37.255Z,0.00
2022-12-10T06:47:42.772Z,0.00
2022-12-10T06:48:38.165Z,0.00
2022-12-10T06:49:37.209Z,0.00
2022-12-10T06:50:37.171Z,0.00
2022-12-10T06:51:37.137Z,0.00
2022-12-10T06:52:37.125Z,0.00
2022-12-10T06:53:37.135Z,0.00
2022-12-10T06:54:37.103Z,0.00
2022-12-10T06:55:37.156Z,0.00
2022-12-10T06:56:37.109Z,0.00
2022-12-10T06:57:37.084Z,0.00
2022-12-10T06:58:37.059Z,0.00
2022-12-10T06:59:37.047Z,0.00
2022-12-10T07:00:37.039Z,0.00
2022-12-10T07:01:37.143Z,0.00
2022-12-10T07:02:37.133Z,0.00
2022-12-10T07:03:37.009Z,0.00
2022-12-10T07:04:36.999Z,0.00
2022-12-10T07:05:36.981Z,4.00
2022-12-10T07:06:36.993Z,0.00
2022-12-10T07:07:37.008Z,0.00
2022-12-10T07:08:36.976Z,0.00
2022-12-10T07:09:36.954Z,4.00
2022-12-10T07:10:36.931Z,4.00
2022-12-10T07:11:36.924Z,4.00
2022-12-10T07:12:36.911Z,4.00
2022-12-10T07:13:36.908Z,0.00
2022-12-10T07:14:36.910Z,4.00
2022-12-10T07:15:36.872Z,0.00
2022-12-10T07:16:36.942Z,4.00
2022-12-10T07:17:36.855Z,4.00
2022-12-10T07:18:36.847Z,4.00
2022-12-10T07:19:36.904Z,4.00
2022-12-10T07:20:36.829Z,4.00
2022-12-10T07:21:36.810Z,4.00
2022-12-10T07:22:36.816Z,4.00
2022-12-10T07:23:36.799Z,4.00
2022-12-10T07:24:36.837Z,0.00
2022-12-10T07:25:36.803Z,4.00
2022-12-10T07:26:36.775Z,4.00
2022-12-10T07:27:36.749Z,4.00
2022-12-10T07:28:44.035Z,8.00
2022-12-10T07:29:37.746Z,4.00
2022-12-10T07:30:36.721Z,8.00
2022-12-10T07:31:36.825Z,4.00
2022-12-10T07:32:36.697Z,8.00
2022-12-10T07:33:36.697Z,8.00
2022-12-10T07:34:36.692Z,12.00
2022-12-10T07:35:36.681Z,12.00
2022-12-10T07:36:36.655Z,12.00
2022-12-10T07:37:36.707Z,12.00
2022-12-10T07:38:36.660Z,12.00
2022-12-10T07:39:36.638Z,12.00
2022-12-10T07:40:36.615Z,16.00
2022-12-10T07:41:36.636Z,16.00
2022-12-10T07:42:36.596Z,16.00
2022-12-10T07:43:36.741Z,16.00
2022-12-10T07:44:36.581Z,16.00
2022-12-10T07:45:36.567Z,16.00
2022-12-10T07:46:36.595Z,16.00
2022-12-10T07:47:36.540Z,16.00
2022-12-10T07:48:36.526Z,16.00
2022-12-10T07:49:36.552Z,20.00
2022-12-10T07:50:36.507Z,20.00
2022-12-10T07:51:36.516Z,20.00
2022-12-10T07:52:36.490Z,20.00
2022-12-10T07:53:36.473Z,20.00
2022-12-10T07:54:36.503Z,24.00
2022-12-10T07:55:36.450Z,24.00
2022-12-10T07:56:36.498Z,24.00
2022-12-10T07:57:36.432Z,28.00
2022-12-10T07:58:36.432Z,24.00
2022-12-10T07:59:36.406Z,24.00
2022-12-10T08:00:36.435Z,28.00
2022-12-10T08:01:36.386Z,28.00
2022-12-10T08:02:36.470Z,28.00
2022-12-10T08:03:36.361Z,28.00
2022-12-10T08:04:36.352Z,28.00
2022-12-10T08:05:36.339Z,28.00
2022-12-10T08:06:36.350Z,32.00
2022-12-10T08:07:36.317Z,32.00
2022-12-10T08:08:36.454Z,36.00
2022-12-10T08:09:36.310Z,36.00
2022-12-10T08:10:36.313Z,36.00
2022-12-10T08:11:36.288Z,40.00
2022-12-10T08:12:36.263Z,44.00
2022-12-10T08:13:36.256Z,48.00
2022-12-10T08:14:36.312Z,44.00
2022-12-10T08:15:36.235Z,48.00
2022-12-10T08:16:36.262Z,48.00
2022-12-10T08:17:36.222Z,48.00
2022-12-10T08:18:36.204Z,48.00
2022-12-10T08:19:36.180Z,48.00
2022-12-10T08:20:36.221Z,48.00
2022-12-10T08:21:36.169Z,48.00
2022-12-10T08:22:36.161Z,48.00
2022-12-10T08:23:36.161Z,52.00
2022-12-10T08:24:36.135Z,56.00
2022-12-10T08:25:40.498Z,56.00
2022-12-10T08:26:36.158Z,60.00
2022-12-10T08:27:36.103Z,64.00
2022-12-10T08:28:36.095Z,68.00
2022-12-10T08:29:36.131Z,72.00
2022-12-10T08:30:36.079Z,72.00
2022-12-10T08:31:38.058Z,76.00
2022-12-10T08:32:36.154Z,80.00
2022-12-10T08:33:36.069Z,80.00
2022-12-10T08:34:36.033Z,80.00
2022-12-10T08:35:36.030Z,76.00
2022-12-10T08:36:36.026Z,68.00
2022-12-10T08:37:36.039Z,72.00
2022-12-10T08:38:35.989Z,76.00
2022-12-10T08:39:36.020Z,76.00
2022-12-10T08:40:35.967Z,76.00
2022-12-10T08:41:35.969Z,80.00
2022-12-10T08:42:35.965Z,80.00
2022-12-10T08:43:35.932Z,84.00
2022-12-10T08:44:35.916Z,88.00
2022-12-10T08:45:36.040Z,92.00
2022-12-10T08:46:35.903Z,92.00
2022-12-10T08:47:35.909Z,96.00
2022-12-10T08:48:35.887Z,96.00
2022-12-10T08:49:35.865Z,96.00
2022-12-10T08:50:35.869Z,100.00
2022-12-10T08:51:35.936Z,100.00
2022-12-10T08:52:35.838Z,100.00
2022-12-10T08:53:35.823Z,100.00
2022-12-10T08:54:35.814Z,100.00
2022-12-10T08:55:35.801Z,96.00
2022-12-10T08:56:35.811Z,92.00
2022-12-10T08:57:35.794Z,88.00
2022-12-10T08:58:35.790Z,88.00
2022-12-10T08:59:35.791Z,88.00
2022-12-10T09:00:35.782Z,92.00
2022-12-10T09:01:35.747Z,92.00
2022-12-10T09:02:35.804Z,96.00
2022-12-10T09:03:35.773Z,96.00
2022-12-10T09:04:35.711Z,96.00
2022-12-10T09:05:35.729Z,100.00
2022-12-10T09:06:35.760Z,96.00
2022-12-10T09:07:35.674Z,100.00
2022-12-10T09:08:35.668Z,104.00
2022-12-10T09:09:35.688Z,108.00
2022-12-10T09:10:35.653Z,108.00
2022-12-10T09:11:35.677Z,104.00
2022-12-10T09:12:35.663Z,104.00
2022-12-10T09:13:35.621Z,100.00
2022-12-10T09:14:35.623Z,100.00
2022-12-10T09:15:35.589Z,104.00
2022-12-10T09:16:35.666Z,108.00
2022-12-10T09:17:35.594Z,108.00
2022-12-10T09:18:35.576Z,108.00
2022-12-10T09:19:35.581Z,104.00
2022-12-10T09:20:35.550Z,104.00
2022-12-10T09:21:35.528Z,92.00
2022-12-10T09:22:35.523Z,88.00
2022-12-10T09:23:35.517Z,84.00
2022-12-10T09:24:35.536Z,80.00
2022-12-10T09:25:35.507Z,80.00
2022-12-10T09:26:35.527Z,76.00
2022-12-10T09:27:35.468Z,80.00
2022-12-10T09:28:35.452Z,80.00
2022-12-10T09:29:35.444Z,80.00
2022-12-10T09:30:35.458Z,84.00
2022-12-10T09:31:35.497Z,84.00
2022-12-10T09:32:35.444Z,88.00
2022-12-10T09:33:35.400Z,92.00
2022-12-10T09:34:35.394Z,92.00
2022-12-10T09:35:35.401Z,92.00
2022-12-10T09:36:35.391Z,92.00
2022-12-10T09:37:35.374Z,92.00
2022-12-10T09:38:35.378Z,96.00
2022-12-10T09:39:35.339Z,100.00
2022-12-10T09:40:35.378Z,104.00
2022-12-10T09:41:35.323Z,108.00
2022-12-10T09:42:35.317Z,108.00
2022-12-10T09:43:35.295Z,112.00
2022-12-10T09:44:35.318Z,108.00
2022-12-10T09:45:35.298Z,112.00
2022-12-10T09:46:35.304Z,116.00
2022-12-10T09:47:35.256Z,116.00
2022-12-10T09:48:35.239Z,112.00
2022-12-10T09:49:35.272Z,112.00
2022-12-10T09:50:35.241Z,116.00
2022-12-10T09:51:35.203Z,116.00
2022-12-10T09:52:35.212Z,120.00
2022-12-10T09:53:35.236Z,124.00
2022-12-10T09:54:35.181Z,124.00
2022-12-10T09:55:35.169Z,124.00
2022-12-10T09:56:35.194Z,120.00
2022-12-10T09:57:35.151Z,116.00
2022-12-10T09:58:35.152Z,108.00
2022-12-10T09:59:35.139Z,108.00
2022-12-10T10:00:35.120Z,112.00
2022-12-10T10:01:35.198Z,112.00
2022-12-10T10:02:35.195Z,112.00
2022-12-10T10:03:35.097Z,108.00
2022-12-10T10:04:35.074Z,108.00
2022-12-10T10:05:35.084Z,108.00
2022-12-10T10:06:35.057Z,104.00
2022-12-10T10:07:35.058Z,108.00
2022-12-10T10:08:35.031Z,104.00
2022-12-10T10:09:35.019Z,108.00
2022-12-10T10:10:35.038Z,104.00
2022-12-10T10:11:35.036Z,104.00
2022-12-10T10:12:35.000Z,108.00
2022-12-10T10:13:34.993Z,108.00
2022-12-10T10:14:34.967Z,108.00
2022-12-10T10:15:34.957Z,104.00
2022-12-10T10:16:35.044Z,100.00
2022-12-10T10:17:34.933Z,104.00
2022-12-10T10:18:34.953Z,104.00
2022-12-10T10:19:34.912Z,108.00
2022-12-10T10:20:34.964Z,108.00
2022-12-10T10:21:34.932Z,108.00
2022-12-10T10:22:34.884Z,104.00
2022-12-10T10:23:34.877Z,104.00
2022-12-10T10:24:34.858Z,108.00
2022-12-10T10:25:34.887Z,104.00
2022-12-10T10:26:34.892Z,104.00
2022-12-10T10:27:34.829Z,100.00
2022-12-10T10:28:34.813Z,96.00
2022-12-10T10:29:34.801Z,100.00
2022-12-10T10:30:34.884Z,96.00
2022-12-10T10:31:34.782Z,92.00
2022-12-10T10:32:34.823Z,92.00
2022-12-10T10:33:34.759Z,92.00
2022-12-10T10:34:34.769Z,96.00
2022-12-10T10:35:34.781Z,96.00
2022-12-10T10:36:34.732Z,100.00
2022-12-10T10:37:34.745Z,96.00
2022-12-10T10:38:34.709Z,96.00
2022-12-10T10:39:34.695Z,88.00
2022-12-10T10:40:34.766Z,88.00
2022-12-10T10:41:34.678Z,88.00
2022-12-10T10:42:34.673Z,88.00
2022-12-10T10:43:34.675Z,88.00
2022-12-10T10:44:34.650Z,88.00
2022-12-10T10:45:34.642Z,88.00
2022-12-10T10:46:34.689Z,92.00
2022-12-10T10:47:35.174Z,88.00
2022-12-10T10:48:34.617Z,92.00
2022-12-10T10:49:34.610Z,92.00
2022-12-10T10:50:34.610Z,96.00
2022-12-10T10:51:34.590Z,100.00
2022-12-10T10:52:34.593Z,100.00
2022-12-10T10:53:34.549Z,104.00
2022-12-10T10:54:34.548Z,104.00
2022-12-10T10:55:34.549Z,104.00
2022-12-10T10:56:34.536Z,116.00
2022-12-10T10:57:34.505Z,116.00
2022-12-10T10:58:34.520Z,116.00
2022-12-10T10:59:34.481Z,116.00
2022-12-10T11:00:34.500Z,116.00
2022-12-10T11:01:34.525Z,120.00
2022-12-10T11:02:34.549Z,120.00
2022-12-10T11:03:34.445Z,120.00
2022-12-10T11:04:34.505Z,120.00
2022-12-10T11:05:36.498Z,120.00
2022-12-10T11:06:34.431Z,120.00
2022-12-10T11:07:34.405Z,128.00
2022-12-10T11:08:34.405Z,132.00
2022-12-10T11:09:34.399Z,132.00
2022-12-10T11:10:34.422Z,132.00
2022-12-10T11:11:34.398Z,136.00
2022-12-10T11:12:34.344Z,140.00
2022-12-10T11:13:34.350Z,144.00
2022-12-10T11:14:39.812Z,140.00
2022-12-10T11:15:35.315Z,144.00
2022-12-10T11:16:34.369Z,144.00
2022-12-10T11:17:34.434Z,140.00
2022-12-10T11:18:34.292Z,144.00
2022-12-10T11:19:34.278Z,144.00
2022-12-10T11:20:41.658Z,144.00
2022-12-10T11:21:35.258Z,140.00
2022-12-10T11:22:34.258Z,140.00
2022-12-10T11:23:34.278Z,136.00
2022-12-10T11:24:34.254Z,132.00
2022-12-10T11:25:34.215Z,132.00
2022-12-10T11:26:38.154Z,136.00
2022-12-10T11:27:35.197Z,132.00
2022-12-10T11:28:34.198Z,136.00
2022-12-10T11:29:34.196Z,136.00
2022-12-10T11:30:34.197Z,140.00
2022-12-10T11:31:34.169Z,140.00
2022-12-10T11:32:34.143Z,140.00
2022-12-10T11:33:34.131Z,144.00
2022-12-10T11:34:34.158Z,148.00
2022-12-10T11:35:34.140Z,148.00
2022-12-10T11:36:34.092Z,148.00
2022-12-10T11:37:35.411Z,144.00
2022-12-10T11:38:34.094Z,144.00
2022-12-10T11:39:34.099Z,144.00
2022-12-10T11:40:34.049Z,144.00
2022-12-10T11:41:34.072Z,136.00
2022-12-10T11:42:34.037Z,140.00
2022-12-10T11:43:34.058Z,136.00
2022-12-10T11:44:34.011Z,132.00
2022-12-10T11:45:34.008Z,132.00
2022-12-10T11:46:34.029Z,132.00
2022-12-10T11:47:34.022Z,132.00
2022-12-10T11:48:38.984Z,128.00
2022-12-10T11:49:34.980Z,128.00
2022-12-10T11:50:33.953Z,128.00
2022-12-10T11:51:33.938Z,128.00
2022-12-10T11:52:33.926Z,128.00
2022-12-10T11:53:33.960Z,136.00
2022-12-10T11:54:33.924Z,136.00
2022-12-10T11:55:33.917Z,136.00
2022-12-10T11:56:33.888Z,140.00
2022-12-10T11:57:33.881Z,144.00
2022-12-10T11:58:33.869Z,148.00
2022-12-10T12:00:02.731Z,156.00
2022-12-10T12:00:34.870Z,160.00
2022-12-10T12:01:33.835Z,164.00
2022-12-10T12:02:33.924Z,164.00
2022-12-10T12:03:33.881Z,168.00
2022-12-10T12:04:33.811Z,168.00
2022-12-10T12:05:33.841Z,168.00
2022-12-10T12:06:33.777Z,168.00
2022-12-10T12:07:33.787Z,164.00
2022-12-10T12:08:33.783Z,164.00
2022-12-10T12:09:33.745Z,164.00
2022-12-10T12:10:52.448Z,164.00
2022-12-10T12:11:34.769Z,164.00
2022-12-10T12:12:33.710Z,172.00
2022-12-10T12:13:33.722Z,172.00
2022-12-10T12:14:33.694Z,172.00
2022-12-10T12:15:33.778Z,172.00
2022-12-10T12:16:33.675Z,168.00
2022-12-10T12:17:33.717Z,168.00
2022-12-10T12:18:33.673Z,172.00
2022-12-10T12:19:33.640Z,172.00
2022-12-10T12:20:33.620Z,176.00
2022-12-10T12:21:33.629Z,180.00
2022-12-10T12:22:33.611Z,184.00
2022-12-10T12:23:33.643Z,184.00
2022-12-10T12:24:33.609Z,176.00
2022-12-10T12:25:33.577Z,180.00
2022-12-10T12:26:33.584Z,188.00
2022-12-10T12:27:33.570Z,188.00
2022-12-10T12:28:33.555Z,188.00
2022-12-10T12:29:37.110Z,188.00
2022-12-10T12:30:33.524Z,192.00
2022-12-10T12:31:33.535Z,188.00
2022-12-10T12:32:33.498Z,184.00
2022-12-10T12:33:33.507Z,180.00
2022-12-10T12:34:33.505Z,180.00
2022-12-10T12:35:33.496Z,176.00
2022-12-10T12:36:33.468Z,172.00
2022-12-10T12:37:33.454Z,168.00
2022-12-10T12:38:33.449Z,168.00
2022-12-10T12:39:33.433Z,172.00
2022-12-10T12:40:33.417Z,176.00
2022-12-10T12:41:33.443Z,176.00
2022-12-10T12:42:33.414Z,180.00
2022-12-10T12:43:33.412Z,184.00
2022-12-10T12:44:33.374Z,188.00
2022-12-10T12:45:33.362Z,188.00
2022-12-10T12:46:33.400Z,188.00
2022-12-10T12:47:33.354Z,180.00
2022-12-10T12:48:33.337Z,176.00
2022-12-10T12:49:33.352Z,172.00
2022-12-10T12:50:33.311Z,172.00
2022-12-10T12:51:33.306Z,176.00
2022-12-10T12:52:33.294Z,180.00
2022-12-10T12:53:35.368Z,188.00
2022-12-10T12:54:33.274Z,192.00
2022-12-10T12:55:33.270Z,196.00
2022-12-10T12:56:33.261Z,200.00
2022-12-10T12:57:33.238Z,200.00
2022-12-10T12:58:33.244Z,200.00
2022-12-10T12:59:37.287Z,204.00
2022-12-10T13:00:33.203Z,204.00
2022-12-10T13:01:33.211Z,204.00
2022-12-10T13:02:33.248Z,200.00
2022-12-10T13:03:33.209Z,200.00
2022-12-10T13:04:33.165Z,200.00
2022-12-10T13:05:33.156Z,208.00
2022-12-10T13:06:33.144Z,212.00
2022-12-10T13:07:33.149Z,212.00
2022-12-10T13:08:33.130Z,208.00
2022-12-10T13:09:33.128Z,204.00
2022-12-10T13:10:33.113Z,208.00
2022-12-10T13:11:33.091Z,216.00
2022-12-10T13:12:33.084Z,220.00
2022-12-10T13:13:33.073Z,224.00
2022-12-10T13:14:33.076Z,228.00
2022-12-10T13:15:33.196Z,220.00
2022-12-10T13:16:33.035Z,216.00
2022-12-10T13:17:33.029Z,216.00
2022-12-10T13:18:33.015Z,212.00
2022-12-10T13:19:33.031Z,216.00
2022-12-10T13:20:33.001Z,220.00
2022-12-10T13:21:33.002Z,220.00
2022-12-10T13:22:32.976Z,220.00
2022-12-10T13:23:32.994Z,216.00
2022-12-10T13:24:32.954Z,204.00
2022-12-10T13:25:32.946Z,200.00
2022-12-10T13:26:32.931Z,196.00
2022-12-10T13:27:32.931Z,196.00
2022-12-10T13:28:32.914Z,192.00
2022-12-10T13:29:32.915Z,192.00
2022-12-10T13:30:32.903Z,196.00
2022-12-10T13:31:32.935Z,204.00
2022-12-10T13:32:32.866Z,208.00
2022-12-10T13:33:32.901Z,212.00
2022-12-10T13:34:32.872Z,220.00
2022-12-10T13:35:32.835Z,224.00
2022-12-10T13:36:32.825Z,228.00
2022-12-10T13:37:32.822Z,224.00
2022-12-10T13:38:32.799Z,224.00
2022-12-10T13:39:32.793Z,220.00
2022-12-10T13:40:32.801Z,216.00
2022-12-10T13:41:32.777Z,216.00
2022-12-10T13:42:32.761Z,224.00
2022-12-10T13:43:32.755Z,228.00
2022-12-10T13:44:32.736Z,228.00
2022-12-10T13:45:32.756Z,228.00
2022-12-10T13:46:32.814Z,224.00
2022-12-10T13:47:32.707Z,228.00
2022-12-10T13:48:32.695Z,228.00
2022-12-10T13:49:32.686Z,228.00
2022-12-10T13:50:32.670Z,212.00
2022-12-10T13:51:32.687Z,188.00
2022-12-10T13:52:32.663Z,164.00
2022-12-10T13:53:32.670Z,140.00
2022-12-10T13:54:32.627Z,124.00
2022-12-10T13:55:32.623Z,120.00
2022-12-10T13:56:32.621Z,116.00
2022-12-10T13:57:32.601Z,120.00
2022-12-10T13:58:32.588Z,128.00
2022-12-10T13:59:32.594Z,136.00
2022-12-10T14:00:32.588Z,148.00
2022-12-10T14:01:32.592Z,156.00
2022-12-10T14:02:32.559Z,152.00
2022-12-10T14:03:32.545Z,152.00
2022-12-10T14:04:32.561Z,156.00
2022-12-10T14:05:35.558Z,160.00
2022-12-10T14:06:33.525Z,152.00
2022-12-10T14:07:32.520Z,144.00
2022-12-10T14:08:32.534Z,140.00
2022-12-10T14:09:32.468Z,136.00
2022-12-10T14:10:32.461Z,132.00
2022-12-10T14:11:37.261Z,124.00
2022-12-10T14:12:33.447Z,112.00
2022-12-10T14:13:32.448Z,100.00
2022-12-10T14:14:32.414Z,92.00
2022-12-10T14:15:32.432Z,84.00
2022-12-10T14:16:32.447Z,84.00
2022-12-10T14:17:32.400Z,84.00
2022-12-10T14:18:32.395Z,80.00
2022-12-10T14:19:32.403Z,80.00
2022-12-10T14:20:32.354Z,80.00
2022-12-10T14:21:32.347Z,80.00
2022-12-10T14:22:32.341Z,72.00
2022-12-10T14:23:32.334Z,68.00
2022-12-10T14:24:32.308Z,68.00
2022-12-10T14:25:32.327Z,64.00
2022-12-10T14:26:32.289Z,60.00
2022-12-10T14:27:32.283Z,60.00
2022-12-10T14:28:32.266Z,60.00
2022-12-10T14:29:32.275Z,56.00
2022-12-10T14:30:32.268Z,56.00
2022-12-10T14:31:32.324Z,52.00
2022-12-10T14:32:32.226Z,56.00
2022-12-10T14:33:32.241Z,52.00
2022-12-10T14:34:32.245Z,56.00
2022-12-10T14:35:32.200Z,56.00
2022-12-10T14:36:32.222Z,56.00
2022-12-10T14:37:32.179Z,64.00
2022-12-10T14:38:32.185Z,64.00
2022-12-10T14:39:32.201Z,68.00
2022-12-10T14:40:32.150Z,64.00
2022-12-10T14:41:37.479Z,60.00
2022-12-10T14:42:33.135Z,52.00
2022-12-10T14:43:32.118Z,48.00
2022-12-10T14:44:32.096Z,44.00
2022-12-10T14:45:32.116Z,44.00
2022-12-10T14:46:32.183Z,40.00
2022-12-10T14:47:32.066Z,40.00
2022-12-10T14:48:32.107Z,40.00
2022-12-10T14:49:32.050Z,36.00
2022-12-10T14:50:32.063Z,36.00
2022-12-10T14:51:32.050Z,36.00
2022-12-10T14:52:32.016Z,36.00
2022-12-10T14:53:32.020Z,32.00
2022-12-10T14:54:32.008Z,32.00
2022-12-10T14:55:31.988Z,32.00
2022-12-10T14:56:31.997Z,28.00
2022-12-10T14:57:31.961Z,28.00
2022-12-10T14:58:33.950Z,28.00
2022-12-10T14:59:32.936Z,28.00
2022-12-10T15:00:31.945Z,28.00
2022-12-10T15:01:31.919Z,28.00
2022-12-10T15:02:31.995Z,28.00
2022-12-10T15:03:32.030Z,24.00
2022-12-10T15:04:31.940Z,24.00
2022-12-10T15:05:31.888Z,24.00
2022-12-10T15:06:31.892Z,24.00
2022-12-10T15:07:31.889Z,20.00
2022-12-10T15:08:31.844Z,20.00
2022-12-10T15:09:31.844Z,20.00
2022-12-10T15:10:31.822Z,20.00
2022-12-10T15:11:31.816Z,20.00
2022-12-10T15:12:31.806Z,20.00
2022-12-10T15:13:31.816Z,20.00
2022-12-10T15:14:31.796Z,16.00
2022-12-10T15:15:31.774Z,16.00
2022-12-10T15:16:31.887Z,16.00
2022-12-10T15:17:31.755Z,16.00
2022-12-10T15:18:31.743Z,12.00
2022-12-10T15:19:31.772Z,12.00
2022-12-10T15:20:31.741Z,12.00
2022-12-10T15:21:31.720Z,12.00
2022-12-10T15:22:36.983Z,12.00
2022-12-10T15:23:32.731Z,12.00
2022-12-10T15:24:31.683Z,8.00
2022-12-10T15:25:31.698Z,12.00
2022-12-10T15:26:31.654Z,8.00
2022-12-10T15:27:31.655Z,8.00
2022-12-10T15:28:31.635Z,8.00
2022-12-10T15:29:31.650Z,4.00
2022-12-10T15:30:31.629Z,8.00
2022-12-10T15:31:31.686Z,4.00
2022-12-10T15:32:31.586Z,8.00
2022-12-10T15:33:31.574Z,4.00
2022-12-10T15:34:31.577Z,4.00
2022-12-10T15:35:31.557Z,4.00
2022-12-10T15:36:31.621Z,4.00
2022-12-10T15:37:31.597Z,4.00
2022-12-10T15:38:31.546Z,4.00
2022-12-10T15:39:31.515Z,0.00
2022-12-10T15:40:31.519Z,4.00
2022-12-10T15:41:31.581Z,0.00
2022-12-10T15:42:31.486Z,0.00
2022-12-10T15:43:31.490Z,0.00
2022-12-10T15:44:31.457Z,4.00
2022-12-10T15:45:31.542Z,0.00
2022-12-10T15:46:31.454Z,0.00
2022-12-10T15:47:31.443Z,0.00
2022-12-10T15:48:31.436Z,0.00
2022-12-10T15:49:31.422Z,4.00
2022-12-10T15:50:31.428Z,0.00
2022-12-10T15:51:31.400Z,0.00
2022-12-10T15:52:31.410Z,0.00
2022-12-10T15:53:35.507Z,0.00
2022-12-10T15:54:31.378Z,0.00
2022-12-10T15:55:31.363Z,0.00
2022-12-10T15:56:31.330Z,0.00
2022-12-10T15:57:31.326Z,0.00
2022-12-10T15:58:31.343Z,0.00
2022-12-10T15:59:31.293Z,0.00
2022-12-10T16:00:31.296Z,0.00
2022-12-10T16:01:31.340Z,0.00
2022-12-10T16:02:31.321Z,0.00
2022-12-10T16:03:31.262Z,0.00
2022-12-10T16:04:31.252Z,0.00
2022-12-10T16:05:31.233Z,0.00
2022-12-10T16:06:31.234Z,0.00
2022-12-10T16:07:31.267Z,0.00
2022-12-10T16:08:31.259Z,0.00
2022-12-10T16:09:31.200Z,0.00
2022-12-10T16:10:31.206Z,0.00
2022-12-10T16:11:31.179Z,0.00
2022-12-10T16:12:33.656Z,0.00
2022-12-10T16:13:32.177Z,0.00
2022-12-10T16:14:31.159Z,0.00
2022-12-10T16:15:31.131Z,0.00
2022-12-10T16:16:31.154Z,0.00
2022-12-10T16:17:31.128Z,0.00
2022-12-10T16:18:34.218Z,0.00
2022-12-10T16:19:31.109Z,0.00
2022-12-10T16:20:31.112Z,0.00
2022-12-10T16:21:31.079Z,0.00
2022-12-10T16:22:31.072Z,0.00
2022-12-10T16:23:31.066Z,0.00
2022-12-10T16:24:31.043Z,0.00
2022-12-10T16:25:31.041Z,0.00
2022-12-10T16:26:31.077Z,0.00
2022-12-10T16:27:31.005Z,0.00
2022-12-10T16:28:31.027Z,0.00
2022-12-10T16:29:30.995Z,0.00
2022-12-10T16:30:35.988Z,0.00
2022-12-10T16:31:32.070Z,0.00
2022-12-10T16:32:30.947Z,0.00
2022-12-10T16:33:30.997Z,0.00
2022-12-10T16:34:30.933Z,0.00
2022-12-10T16:35:30.921Z,0.00
2022-12-10T16:36:30.912Z,0.00
2022-12-10T16:37:30.889Z,0.00
2022-12-10T16:38:30.885Z,0.00
2022-12-10T16:39:31.228Z,0.00
2022-12-10T16:40:30.866Z,0.00
2022-12-10T16:41:30.854Z,0.00
2022-12-10T16:42:30.870Z,0.00
2022-12-10T16:43:30.828Z,0.00
2022-12-10T16:44:30.854Z,0.00
2022-12-10T16:45:30.899Z,0.00
2022-12-10T16:46:30.803Z,0.00
2022-12-10T16:47:30.792Z,0.00
2022-12-10T16:48:30.790Z,0.00
2022-12-10T16:49:30.764Z,0.00
2022-12-10T16:50:30.777Z,0.00
2022-12-10T16:51:30.755Z,0.00
2022-12-10T16:52:30.733Z,0.00
2022-12-10T16:53:30.748Z,0.00
2022-12-10T16:54:30.722Z,0.00
2022-12-10T16:55:30.706Z,0.00
2022-12-10T16:56:30.722Z,0.00
2022-12-10T16:57:35.416Z,0.00
2022-12-10T16:58:31.692Z,0.00
2022-12-10T16:59:30.696Z,0.00
2022-12-10T17:00:30.681Z,0.00
2022-12-10T17:01:30.690Z,0.00
2022-12-10T17:02:30.686Z,0.00
2022-12-10T17:03:30.655Z,0.00
2022-12-10T17:04:30.613Z,0.00
2022-12-10T17:05:30.613Z,0.00
2022-12-10T17:06:30.597Z,0.00
2022-12-10T17:07:30.617Z,0.00
2022-12-10T17:08:30.636Z,0.00
2022-12-10T17:09:30.563Z,0.00
2022-12-10T17:10:30.555Z,0.00
2022-12-10T17:11:30.540Z,0.00
2022-12-10T17:12:30.544Z,0.00
2022-12-10T17:13:30.532Z,0.00
2022-12-10T17:14:30.525Z,0.00
2022-12-10T17:15:30.556Z,0.00
2022-12-10T17:16:30.517Z,0.00
2022-12-10T17:17:30.465Z,0.00
2022-12-10T17:18:30.460Z,0.00
2022-12-10T17:19:30.495Z,0.00
2022-12-10T17:20:30.445Z,0.00
2022-12-10T17:21:34.309Z,0.00
2022-12-10T17:22:31.420Z,0.00
2022-12-10T17:23:30.405Z,0.00
2022-12-10T17:24:30.396Z,0.00
2022-12-10T17:25:30.420Z,0.00
2022-12-10T17:26:30.380Z,0.00
2022-12-10T17:27:35.701Z,0.00
2022-12-10T17:28:31.367Z,0.00
2022-12-10T17:29:30.338Z,0.00
2022-12-10T17:30:30.351Z,0.00
2022-12-10T17:31:30.367Z,0.00
2022-12-10T17:32:30.317Z,0.00
2022-12-10T17:33:30.302Z,0.00
2022-12-10T17:34:30.306Z,0.00
2022-12-10T17:35:30.273Z,0.00
2022-12-10T17:36:30.270Z,0.00
2022-12-10T17:37:30.258Z,0.00
2022-12-10T17:38:30.270Z,0.00
2022-12-10T17:39:30.231Z,0.00
2022-12-10T17:40:30.248Z,0.00
2022-12-10T17:41:30.224Z,0.00
2022-12-10T17:42:30.202Z,0.00
2022-12-10T17:43:30.194Z,0.00
2022-12-10T17:44:30.227Z,0.00
2022-12-10T17:45:30.233Z,0.00
2022-12-10T17:46:30.193Z,0.00
2022-12-10T17:47:30.168Z,0.00
2022-12-10T17:48:30.135Z,0.00
2022-12-10T17:49:30.161Z,0.00
2022-12-10T17:50:32.364Z,0.00
2022-12-10T17:51:30.100Z,0.00
2022-12-10T17:52:30.121Z,0.00
2022-12-10T17:53:30.078Z,0.00
2022-12-10T17:54:30.073Z,0.00
2022-12-10T17:55:30.090Z,0.00
2022-12-10T17:56:30.056Z,0.00
2022-12-10T17:57:30.037Z,0.00
2022-12-10T17:58:30.022Z,0.00
2022-12-10T17:59:30.030Z,0.00
2022-12-10T18:00:30.010Z,0.00
2022-12-10T18:01:30.084Z,0.00
2022-12-10T18:02:30.047Z,0.00
2022-12-10T18:03:29.968Z,0.00
2022-12-10T18:04:29.964Z,0.00
2022-12-10T18:05:29.971Z,0.00
2022-12-10T18:06:29.955Z,0.00
2022-12-10T18:07:29.935Z,0.00
2022-12-10T18:08:30.020Z,0.00
2022-12-10T18:09:29.908Z,0.00
2022-12-10T18:10:29.902Z,0.00
2022-12-10T18:11:29.902Z,0.00
2022-12-10T18:12:29.892Z,0.00
2022-12-10T18:13:29.880Z,0.00
2022-12-10T18:14:29.858Z,0.00
2022-12-10T18:15:29.857Z,0.00
2022-12-10T18:16:29.883Z,0.00
2022-12-10T18:17:29.822Z,0.00
2022-12-10T18:18:29.858Z,0.00
2022-12-10T18:19:29.799Z,0.00
2022-12-10T18:20:29.787Z,0.00
2022-12-10T18:21:29.796Z,0.00
2022-12-10T18:22:29.772Z,0.00
2022-12-10T18:23:29.781Z,0.00